sensor_id;sensor_type;location;lat;lon;timestamp;temperature;humidity
46364;DHT22;32071;49.036;9.344;2022-09-12T00:00:27;12.30;99.90
46364;DHT22;32071;49.036;9.344;2022-09-12T00:02:53;12.20;99.90
46364;DHT22;32071;49.036;9.344;2022-09-12T00:05:20;12.20;99.90
46364;DHT22;32071;49.036;9.344;2022-09-12T00:07:46;12.20;99.90
46364;DHT22;32071;49.036;9.344;2022-09-12T00:10:11;12.10;99.90
46364;DHT22;32071;49.036;9.344;2022-09-12T00:12:37;12.10;99.90
46364;DHT22;32071;49.036;9.344;2022-09-12T00:15:03;12.10;99.90
46364;DHT22;32071;49.036;9.344;2022-09-12T00:17:29;12.10;99.90
46364;DHT22;32071;49.036;9.344;2022-09-12T00:19:55;12.10;99.90
46364;DHT22;32071;49.036;9.344;2022-09-12T00:22:20;12.10;99.90
46364;DHT22;32071;49.036;9.344;2022-09-12T00:24:46;12.10;99.90
46364;DHT22;32071;49.036;9.344;2022-09-12T00:27:12;12.00;99.90
46364;DHT22;32071;49.036;9.344;2022-09-12T00:29:37;12.00;99.90
46364;DHT22;32071;49.036;9.344;2022-09-12T00:32:03;12.00;99.90
46364;DHT22;32071;49.036;9.344;2022-09-12T00:34:29;12.00;99.90
46364;DHT22;32071;49.036;9.344;2022-09-12T00:36:54;12.00;99.90
46364;DHT22;32071;49.036;9.344;2022-09-12T00:39:20;12.00;99.90
46364;DHT22;32071;49.036;9.344;2022-09-12T00:41:46;12.00;99.90
46364;DHT22;32071;49.036;9.344;2022-09-12T00:46:43;12.00;99.90
46364;DHT22;32071;49.036;9.344;2022-09-12T00:49:28;11.90;99.90
46364;DHT22;32071;49.036;9.344;2022-09-12T00:52:06;11.90;99.90
46364;DHT22;32071;49.036;9.344;2022-09-12T00:57:33;11.90;99.90
46364;DHT22;32071;49.036;9.344;2022-09-12T01:00:11;11.90;99.90
46364;DHT22;32071;49.036;9.344;2022-09-12T01:02:47;11.90;99.90
46364;DHT22;32071;49.036;9.344;2022-09-12T01:05:14;11.90;99.90
46364;DHT22;32071;49.036;9.344;2022-09-12T01:07:40;11.90;99.90
46364;DHT22;32071;49.036;9.344;2022-09-12T01:10:08;11.90;99.90
46364;DHT22;32071;49.036;9.344;2022-09-12T01:12:37;11.80;99.90
46364;DHT22;32071;49.036;9.344;2022-09-12T01:15:03;11.80;99.90
46364;DHT22;32071;49.036;9.344;2022-09-12T01:17:38;11.70;99.90
46364;DHT22;32071;49.036;9.344;2022-09-12T01:25:59;11.60;99.90
46364;DHT22;32071;49.036;9.344;2022-09-12T01:31:21;11.60;99.90
46364;DHT22;32071;49.036;9.344;2022-09-12T01:34:03;11.50;99.90
46364;DHT22;32071;49.036;9.344;2022-09-12T01:36:39;11.50;99.90
46364;DHT22;32071;49.036;9.344;2022-09-12T01:39:13;11.40;99.90
46364;DHT22;32071;49.036;9.344;2022-09-12T01:41:46;11.40;99.90
46364;DHT22;32071;49.036;9.344;2022-09-12T01:44:35;11.40;99.90
46364;DHT22;32071;49.036;9.344;2022-09-12T01:47:07;11.40;99.90
46364;DHT22;32071;49.036;9.344;2022-09-12T01:50:01;11.30;99.90
46364;DHT22;32071;49.036;9.344;2022-09-12T01:55:14;11.20;99.90
46364;DHT22;32071;49.036;9.344;2022-09-12T01:58:14;11.20;99.90
46364;DHT22;32071;49.036;9.344;2022-09-12T02:00:51;11.20;99.90
46364;DHT22;32071;49.036;9.344;2022-09-12T02:03:24;11.20;99.90
46364;DHT22;32071;49.036;9.344;2022-09-12T02:05:59;11.10;99.90
46364;DHT22;32071;49.036;9.344;2022-09-12T02:08:33;11.10;99.90
46364;DHT22;32071;49.036;9.344;2022-09-12T02:11:06;11.20;99.90
46364;DHT22;32071;49.036;9.344;2022-09-12T02:13:52;11.10;99.90
46364;DHT22;32071;49.036;9.344;2022-09-12T02:16:31;11.10;99.90
46364;DHT22;32071;49.036;9.344;2022-09-12T02:19:04;11.10;99.90
46364;DHT22;32071;49.036;9.344;2022-09-12T02:21:32;11.10;99.90
46364;DHT22;32071;49.036;9.344;2022-09-12T02:24:02;11.00;99.90
46364;DHT22;32071;49.036;9.344;2022-09-12T02:26:33;11.00;99.90
46364;DHT22;32071;49.036;9.344;2022-09-12T02:29:00;11.00;99.90
46364;DHT22;32071;49.036;9.344;2022-09-12T02:31:41;11.00;99.90
46364;DHT22;32071;49.036;9.344;2022-09-12T02:34:37;11.00;99.90
46364;DHT22;32071;49.036;9.344;2022-09-12T02:39:38;11.00;99.90
46364;DHT22;32071;49.036;9.344;2022-09-12T02:42:04;11.00;99.90
46364;DHT22;32071;49.036;9.344;2022-09-12T02:44:30;11.00;99.90
46364;DHT22;32071;49.036;9.344;2022-09-12T02:49:29;11.00;99.90
46364;DHT22;32071;49.036;9.344;2022-09-12T02:51:54;11.10;99.90
46364;DHT22;32071;49.036;9.344;2022-09-12T02:54:20;11.00;99.90
46364;DHT22;32071;49.036;9.344;2022-09-12T02:56:46;11.00;99.90
46364;DHT22;32071;49.036;9.344;2022-09-12T02:59:16;11.10;99.90
46364;DHT22;32071;49.036;9.344;2022-09-12T03:07:27;11.10;99.90
46364;DHT22;32071;49.036;9.344;2022-09-12T03:10:13;11.10;99.90
46364;DHT22;32071;49.036;9.344;2022-09-12T03:18:15;11.10;99.90
46364;DHT22;32071;49.036;9.344;2022-09-12T03:20:59;11.10;99.90
46364;DHT22;32071;49.036;9.344;2022-09-12T03:23:32;11.10;99.90
46364;DHT22;32071;49.036;9.344;2022-09-12T03:26:04;11.00;99.90
46364;DHT22;32071;49.036;9.344;2022-09-12T03:28:33;11.00;99.90
46364;DHT22;32071;49.036;9.344;2022-09-12T03:30:59;11.00;99.90
46364;DHT22;32071;49.036;9.344;2022-09-12T03:33:25;11.00;99.90
46364;DHT22;32071;49.036;9.344;2022-09-12T03:35:51;11.00;99.90
46364;DHT22;32071;49.036;9.344;2022-09-12T03:38:18;11.00;99.90
46364;DHT22;32071;49.036;9.344;2022-09-12T03:40:43;11.00;99.90
46364;DHT22;32071;49.036;9.344;2022-09-12T03:43:11;11.00;99.90
46364;DHT22;32071;49.036;9.344;2022-09-12T03:45:37;11.00;99.90
46364;DHT22;32071;49.036;9.344;2022-09-12T03:48:04;11.00;99.90
46364;DHT22;32071;49.036;9.344;2022-09-12T03:50:30;10.90;99.90
46364;DHT22;32071;49.036;9.344;2022-09-12T03:52:58;10.90;99.90
46364;DHT22;32071;49.036;9.344;2022-09-12T03:55:24;10.80;99.90
46364;DHT22;32071;49.036;9.344;2022-09-12T03:57:54;10.80;99.90
46364;DHT22;32071;49.036;9.344;2022-09-12T04:00:20;10.80;99.90
46364;DHT22;32071;49.036;9.344;2022-09-12T04:02:46;10.80;99.90
46364;DHT22;32071;49.036;9.344;2022-09-12T04:05:12;10.80;99.90
46364;DHT22;32071;49.036;9.344;2022-09-12T04:07:37;10.70;99.90
46364;DHT22;32071;49.036;9.344;2022-09-12T04:10:03;10.70;99.90
46364;DHT22;32071;49.036;9.344;2022-09-12T04:12:29;10.70;99.90
46364;DHT22;32071;49.036;9.344;2022-09-12T04:14:55;10.60;99.90
46364;DHT22;32071;49.036;9.344;2022-09-12T04:17:20;10.60;99.90
46364;DHT22;32071;49.036;9.344;2022-09-12T04:19:46;10.50;99.90
46364;DHT22;32071;49.036;9.344;2022-09-12T04:22:11;10.50;99.90
46364;DHT22;32071;49.036;9.344;2022-09-12T04:24:37;10.40;99.90
46364;DHT22;32071;49.036;9.344;2022-09-12T04:27:02;10.40;99.90
46364;DHT22;32071;49.036;9.344;2022-09-12T04:29:28;10.40;99.90
46364;DHT22;32071;49.036;9.344;2022-09-12T04:31:55;10.40;99.90
46364;DHT22;32071;49.036;9.344;2022-09-12T04:34:21;10.40;99.90
46364;DHT22;32071;49.036;9.344;2022-09-12T04:36:47;10.30;99.90
46364;DHT22;32071;49.036;9.344;2022-09-12T04:39:13;10.20;99.90
46364;DHT22;32071;49.036;9.344;2022-09-12T04:41:39;10.20;99.90
46364;DHT22;32071;49.036;9.344;2022-09-12T04:44:10;10.20;99.90
46364;DHT22;32071;49.036;9.344;2022-09-12T04:46:39;10.20;99.90
46364;DHT22;32071;49.036;9.344;2022-09-12T04:49:05;10.20;99.90
46364;DHT22;32071;49.036;9.344;2022-09-12T04:51:33;10.20;99.90
46364;DHT22;32071;49.036;9.344;2022-09-12T04:54:03;10.20;99.90
46364;DHT22;32071;49.036;9.344;2022-09-12T04:56:29;10.20;99.90
46364;DHT22;32071;49.036;9.344;2022-09-12T04:58:59;10.10;99.90
46364;DHT22;32071;49.036;9.344;2022-09-12T05:01:26;10.10;99.90
46364;DHT22;32071;49.036;9.344;2022-09-12T05:03:53;10.10;99.90
46364;DHT22;32071;49.036;9.344;2022-09-12T05:06:23;10.10;99.90
46364;DHT22;32071;49.036;9.344;2022-09-12T05:08:50;10.10;99.90
46364;DHT22;32071;49.036;9.344;2022-09-12T05:11:17;10.10;99.90
46364;DHT22;32071;49.036;9.344;2022-09-12T05:13:43;10.10;99.90
46364;DHT22;32071;49.036;9.344;2022-09-12T05:16:11;10.10;99.90
46364;DHT22;32071;49.036;9.344;2022-09-12T05:18:37;10.10;99.90
46364;DHT22;32071;49.036;9.344;2022-09-12T05:21:06;10.10;99.90
46364;DHT22;32071;49.036;9.344;2022-09-12T05:23:32;10.10;99.90
46364;DHT22;32071;49.036;9.344;2022-09-12T05:25:59;10.10;99.90
46364;DHT22;32071;49.036;9.344;2022-09-12T05:28:38;10.10;99.90
46364;DHT22;32071;49.036;9.344;2022-09-12T05:31:07;10.10;99.90
46364;DHT22;32071;49.036;9.344;2022-09-12T05:33:35;10.10;99.90
46364;DHT22;32071;49.036;9.344;2022-09-12T05:36:01;10.10;99.90
46364;DHT22;32071;49.036;9.344;2022-09-12T05:38:27;10.10;99.90
46364;DHT22;32071;49.036;9.344;2022-09-12T05:41:07;10.20;99.90
46364;DHT22;32071;49.036;9.344;2022-09-12T05:43:33;10.20;99.90
46364;DHT22;32071;49.036;9.344;2022-09-12T05:46:00;10.30;99.90
46364;DHT22;32071;49.036;9.344;2022-09-12T05:48:26;10.30;99.90
46364;DHT22;32071;49.036;9.344;2022-09-12T05:51:01;10.40;99.90
46364;DHT22;32071;49.036;9.344;2022-09-12T05:53:29;10.50;99.90
46364;DHT22;32071;49.036;9.344;2022-09-12T05:56:03;10.60;99.90
46364;DHT22;32071;49.036;9.344;2022-09-12T05:58:29;10.60;99.90
46364;DHT22;32071;49.036;9.344;2022-09-12T06:00:55;10.70;99.90
46364;DHT22;32071;49.036;9.344;2022-09-12T06:03:21;10.80;99.90
46364;DHT22;32071;49.036;9.344;2022-09-12T06:05:47;10.80;99.90
46364;DHT22;32071;49.036;9.344;2022-09-12T06:08:12;10.90;99.90
46364;DHT22;32071;49.036;9.344;2022-09-12T06:10:38;11.00;99.90
46364;DHT22;32071;49.036;9.344;2022-09-12T06:13:04;11.00;99.90
46364;DHT22;32071;49.036;9.344;2022-09-12T06:15:29;11.10;99.90
46364;DHT22;32071;49.036;9.344;2022-09-12T06:17:55;11.20;99.90
46364;DHT22;32071;49.036;9.344;2022-09-12T06:20:20;11.30;99.90
46364;DHT22;32071;49.036;9.344;2022-09-12T06:22:46;11.40;99.90
46364;DHT22;32071;49.036;9.344;2022-09-12T06:25:12;11.50;99.90
46364;DHT22;32071;49.036;9.344;2022-09-12T06:27:38;11.50;99.90
46364;DHT22;32071;49.036;9.344;2022-09-12T06:30:04;11.60;99.90
46364;DHT22;32071;49.036;9.344;2022-09-12T06:32:31;11.70;99.90
46364;DHT22;32071;49.036;9.344;2022-09-12T06:34:57;11.80;99.90
46364;DHT22;32071;49.036;9.344;2022-09-12T06:37:22;12.00;99.90
46364;DHT22;32071;49.036;9.344;2022-09-12T06:39:48;12.10;99.90
46364;DHT22;32071;49.036;9.344;2022-09-12T06:42:13;12.20;99.90
46364;DHT22;32071;49.036;9.344;2022-09-12T06:44:39;12.30;99.90
46364;DHT22;32071;49.036;9.344;2022-09-12T06:47:05;12.40;99.90
46364;DHT22;32071;49.036;9.344;2022-09-12T06:49:31;12.50;99.90
46364;DHT22;32071;49.036;9.344;2022-09-12T06:51:58;12.50;99.90
46364;DHT22;32071;49.036;9.344;2022-09-12T06:54:23;12.60;99.90
46364;DHT22;32071;49.036;9.344;2022-09-12T06:56:50;12.70;99.90
46364;DHT22;32071;49.036;9.344;2022-09-12T06:59:16;12.80;99.90
46364;DHT22;32071;49.036;9.344;2022-09-12T07:01:41;12.90;99.90
46364;DHT22;32071;49.036;9.344;2022-09-12T07:04:07;12.90;99.90
46364;DHT22;32071;49.036;9.344;2022-09-12T07:06:38;13.00;99.90
46364;DHT22;32071;49.036;9.344;2022-09-12T07:09:05;13.10;99.90
46364;DHT22;32071;49.036;9.344;2022-09-12T07:11:33;13.20;99.90
46364;DHT22;32071;49.036;9.344;2022-09-12T07:14:01;13.30;99.90
46364;DHT22;32071;49.036;9.344;2022-09-12T07:16:27;13.40;99.90
46364;DHT22;32071;49.036;9.344;2022-09-12T07:18:55;13.40;99.90
46364;DHT22;32071;49.036;9.344;2022-09-12T07:21:22;13.50;99.90
46364;DHT22;32071;49.036;9.344;2022-09-12T07:23:49;13.60;99.90
46364;DHT22;32071;49.036;9.344;2022-09-12T07:26:16;13.60;99.90
46364;DHT22;32071;49.036;9.344;2022-09-12T07:28:42;13.70;99.90
46364;DHT22;32071;49.036;9.344;2022-09-12T07:31:16;13.80;99.90
46364;DHT22;32071;49.036;9.344;2022-09-12T07:33:42;13.90;99.90
46364;DHT22;32071;49.036;9.344;2022-09-12T07:36:11;14.00;99.90
46364;DHT22;32071;49.036;9.344;2022-09-12T07:38:37;14.10;99.90
46364;DHT22;32071;49.036;9.344;2022-09-12T07:41:21;14.10;99.90
46364;DHT22;32071;49.036;9.344;2022-09-12T07:43:50;14.20;99.90
46364;DHT22;32071;49.036;9.344;2022-09-12T07:46:16;14.30;99.90
46364;DHT22;32071;49.036;9.344;2022-09-12T07:48:41;14.40;99.90
46364;DHT22;32071;49.036;9.344;2022-09-12T07:51:10;14.50;99.90
46364;DHT22;32071;49.036;9.344;2022-09-12T07:53:38;14.60;99.90
46364;DHT22;32071;49.036;9.344;2022-09-12T07:56:04;14.80;99.90
46364;DHT22;32071;49.036;9.344;2022-09-12T07:58:31;14.80;99.90
46364;DHT22;32071;49.036;9.344;2022-09-12T08:01:14;14.90;99.90
46364;DHT22;32071;49.036;9.344;2022-09-12T08:03:44;15.00;99.90
46364;DHT22;32071;49.036;9.344;2022-09-12T08:06:12;15.10;99.90
46364;DHT22;32071;49.036;9.344;2022-09-12T08:08:41;15.30;99.90
46364;DHT22;32071;49.036;9.344;2022-09-12T08:11:10;15.40;99.90
46364;DHT22;32071;49.036;9.344;2022-09-12T08:13:38;15.50;99.90
46364;DHT22;32071;49.036;9.344;2022-09-12T08:16:10;15.60;99.90
46364;DHT22;32071;49.036;9.344;2022-09-12T08:18:36;15.60;99.90
46364;DHT22;32071;49.036;9.344;2022-09-12T08:21:13;15.70;99.90
46364;DHT22;32071;49.036;9.344;2022-09-12T08:23:40;15.80;99.90
46364;DHT22;32071;49.036;9.344;2022-09-12T08:26:06;16.10;99.90
46364;DHT22;32071;49.036;9.344;2022-09-12T08:28:34;16.30;99.90
46364;DHT22;32071;49.036;9.344;2022-09-12T08:31:04;16.40;99.90
46364;DHT22;32071;49.036;9.344;2022-09-12T08:33:30;16.60;99.90
46364;DHT22;32071;49.036;9.344;2022-09-12T08:36:11;16.70;99.90
46364;DHT22;32071;49.036;9.344;2022-09-12T08:38:38;16.80;99.90
46364;DHT22;32071;49.036;9.344;2022-09-12T08:44:26;17.10;99.90
46364;DHT22;32071;49.036;9.344;2022-09-12T08:49:37;17.50;99.90
46364;DHT22;32071;49.036;9.344;2022-09-12T08:52:10;17.50;99.90
46364;DHT22;32071;49.036;9.344;2022-09-12T08:54:38;17.60;99.90
46364;DHT22;32071;49.036;9.344;2022-09-12T08:57:07;17.70;99.90
46364;DHT22;32071;49.036;9.344;2022-09-12T08:59:38;17.90;99.90
46364;DHT22;32071;49.036;9.344;2022-09-12T09:08:08;18.40;99.90
46364;DHT22;32071;49.036;9.344;2022-09-12T09:13:32;18.90;99.90
46364;DHT22;32071;49.036;9.344;2022-09-12T09:16:29;19.00;99.90
46364;DHT22;32071;49.036;9.344;2022-09-12T09:18:58;19.20;99.90
46364;DHT22;32071;49.036;9.344;2022-09-12T09:21:41;19.40;99.90
46364;DHT22;32071;49.036;9.344;2022-09-12T09:24:12;19.40;99.90
46364;DHT22;32071;49.036;9.344;2022-09-12T09:26:45;19.50;99.90
46364;DHT22;32071;49.036;9.344;2022-09-12T09:29:20;19.50;99.90
46364;DHT22;32071;49.036;9.344;2022-09-12T09:31:50;19.60;99.90
46364;DHT22;32071;49.036;9.344;2022-09-12T09:34:22;19.70;99.90
46364;DHT22;32071;49.036;9.344;2022-09-12T09:39:30;20.00;99.90
46364;DHT22;32071;49.036;9.344;2022-09-12T09:44:53;20.20;99.90
46364;DHT22;32071;49.036;9.344;2022-09-12T09:47:20;20.20;99.90
46364;DHT22;32071;49.036;9.344;2022-09-12T09:49:46;20.40;99.90
46364;DHT22;32071;49.036;9.344;2022-09-12T09:52:15;20.50;99.90
46364;DHT22;32071;49.036;9.344;2022-09-12T09:55:11;20.70;99.90
46364;DHT22;32071;49.036;9.344;2022-09-12T09:57:39;20.90;99.90
46364;DHT22;32071;49.036;9.344;2022-09-12T10:05:47;21.10;99.90
46364;DHT22;32071;49.036;9.344;2022-09-12T10:08:31;21.20;99.90
46364;DHT22;32071;49.036;9.344;2022-09-12T10:11:22;21.30;99.90
46364;DHT22;32071;49.036;9.344;2022-09-12T10:13:57;21.30;99.90
46364;DHT22;32071;49.036;9.344;2022-09-12T10:16:33;21.40;99.90
46364;DHT22;32071;49.036;9.344;2022-09-12T10:19:01;21.50;99.90
46364;DHT22;32071;49.036;9.344;2022-09-12T10:24:33;21.60;99.90
46364;DHT22;32071;49.036;9.344;2022-09-12T10:30:04;21.80;99.90
46364;DHT22;32071;49.036;9.344;2022-09-12T10:32:35;21.80;99.90
46364;DHT22;32071;49.036;9.344;2022-09-12T10:35:41;21.90;99.30
46364;DHT22;32071;49.036;9.344;2022-09-12T10:38:20;22.10;99.90
46364;DHT22;32071;49.036;9.344;2022-09-12T10:43:35;22.30;99.00
46364;DHT22;32071;49.036;9.344;2022-09-12T10:48:40;22.50;98.50
46364;DHT22;32071;49.036;9.344;2022-09-12T10:53:50;22.80;98.00
46364;DHT22;32071;49.036;9.344;2022-09-12T10:56:18;22.90;97.20
46364;DHT22;32071;49.036;9.344;2022-09-12T10:59:06;22.90;96.80
46364;DHT22;32071;49.036;9.344;2022-09-12T11:01:44;23.00;97.10
46364;DHT22;32071;49.036;9.344;2022-09-12T11:21:42;23.30;94.00
46364;DHT22;32071;49.036;9.344;2022-09-12T11:29:49;23.50;94.20
46364;DHT22;32071;49.036;9.344;2022-09-12T11:34:54;23.70;92.10
46364;DHT22;32071;49.036;9.344;2022-09-12T11:39:53;23.70;92.40
46364;DHT22;32071;49.036;9.344;2022-09-12T11:42:29;23.70;91.60
46364;DHT22;32071;49.036;9.344;2022-09-12T11:45:03;23.60;92.10
46364;DHT22;32071;49.036;9.344;2022-09-12T11:47:31;23.50;91.60
46364;DHT22;32071;49.036;9.344;2022-09-12T11:50:00;23.40;92.40
46364;DHT22;32071;49.036;9.344;2022-09-12T11:52:34;23.60;92.10
46364;DHT22;32071;49.036;9.344;2022-09-12T11:55:16;23.80;90.40
46364;DHT22;32071;49.036;9.344;2022-09-12T11:57:44;24.00;91.40
46364;DHT22;32071;49.036;9.344;2022-09-12T12:00:28;24.20;90.90
46364;DHT22;32071;49.036;9.344;2022-09-12T12:08:30;24.20;87.10
46364;DHT22;32071;49.036;9.344;2022-09-12T12:11:01;24.20;86.80
46364;DHT22;32071;49.036;9.344;2022-09-12T12:13:37;24.30;89.50
46364;DHT22;32071;49.036;9.344;2022-09-12T12:16:14;24.40;89.40
46364;DHT22;32071;49.036;9.344;2022-09-12T12:18:42;24.60;84.40
46364;DHT22;32071;49.036;9.344;2022-09-12T12:35:00;25.10;80.40
46364;DHT22;32071;49.036;9.344;2022-09-12T12:39:58;25.50;80.00
46364;DHT22;32071;49.036;9.344;2022-09-12T12:45:02;25.60;79.90
46364;DHT22;32071;49.036;9.344;2022-09-12T12:50:28;25.80;78.70
46364;DHT22;32071;49.036;9.344;2022-09-12T12:53:03;25.80;79.00
46364;DHT22;32071;49.036;9.344;2022-09-12T12:55:34;25.70;78.50
46364;DHT22;32071;49.036;9.344;2022-09-12T12:58:04;25.50;78.60
46364;DHT22;32071;49.036;9.344;2022-09-12T13:00:37;25.50;80.30
46364;DHT22;32071;49.036;9.344;2022-09-12T13:05:45;25.60;79.80
46364;DHT22;32071;49.036;9.344;2022-09-12T13:10:55;25.80;78.40
46364;DHT22;32071;49.036;9.344;2022-09-12T13:16:09;25.60;81.20
46364;DHT22;32071;49.036;9.344;2022-09-12T13:18:45;25.60;80.40
46364;DHT22;32071;49.036;9.344;2022-09-12T13:21:19;25.60;78.70
46364;DHT22;32071;49.036;9.344;2022-09-12T13:24:12;25.50;79.10
46364;DHT22;32071;49.036;9.344;2022-09-12T13:26:42;25.50;76.00
46364;DHT22;32071;49.036;9.344;2022-09-12T13:29:19;25.60;76.90
46364;DHT22;32071;49.036;9.344;2022-09-12T13:31:51;25.80;79.00
46364;DHT22;32071;49.036;9.344;2022-09-12T13:34:21;26.10;75.90
46364;DHT22;32071;49.036;9.344;2022-09-12T13:47:52;26.10;78.50
46364;DHT22;32071;49.036;9.344;2022-09-12T13:50:29;25.80;79.10
46364;DHT22;32071;49.036;9.344;2022-09-12T13:53:17;25.60;78.20
46364;DHT22;32071;49.036;9.344;2022-09-12T13:55:50;25.60;80.30
46364;DHT22;32071;49.036;9.344;2022-09-12T13:58:29;25.50;81.40
46364;DHT22;32071;49.036;9.344;2022-09-12T14:01:03;25.50;81.20
46364;DHT22;32071;49.036;9.344;2022-09-12T14:03:31;25.60;82.40
46364;DHT22;32071;49.036;9.344;2022-09-12T14:06:16;25.50;81.20
46364;DHT22;32071;49.036;9.344;2022-09-12T14:08:45;25.50;80.00
46364;DHT22;32071;49.036;9.344;2022-09-12T14:11:20;25.50;82.10
46364;DHT22;32071;49.036;9.344;2022-09-12T14:13:47;25.50;82.30
46364;DHT22;32071;49.036;9.344;2022-09-12T14:16:13;25.40;80.50
46364;DHT22;32071;49.036;9.344;2022-09-12T14:18:39;25.30;78.70
46364;DHT22;32071;49.036;9.344;2022-09-12T14:21:14;25.30;78.10
46364;DHT22;32071;49.036;9.344;2022-09-12T14:23:48;25.40;77.50
46364;DHT22;32071;49.036;9.344;2022-09-12T14:26:14;25.70;75.70
46364;DHT22;32071;49.036;9.344;2022-09-12T14:28:43;25.90;75.70
46364;DHT22;32071;49.036;9.344;2022-09-12T14:33:52;26.70;76.20
46364;DHT22;32071;49.036;9.344;2022-09-12T14:36:33;26.90;76.80
46364;DHT22;32071;49.036;9.344;2022-09-12T14:39:14;27.40;73.90
46364;DHT22;32071;49.036;9.344;2022-09-12T14:41:41;28.10;74.00
46364;DHT22;32071;49.036;9.344;2022-09-12T14:44:14;29.10;70.00
46364;DHT22;32071;49.036;9.344;2022-09-12T14:46:41;30.20;68.00
46364;DHT22;32071;49.036;9.344;2022-09-12T14:51:55;32.40;61.10
46364;DHT22;32071;49.036;9.344;2022-09-12T15:00:24;33.70;54.60
46364;DHT22;32071;49.036;9.344;2022-09-12T15:02:51;34.60;52.70
46364;DHT22;32071;49.036;9.344;2022-09-12T15:05:23;35.90;49.80
46364;DHT22;32071;49.036;9.344;2022-09-12T15:07:58;36.30;48.20
46364;DHT22;32071;49.036;9.344;2022-09-12T15:10:28;37.40;47.60
46364;DHT22;32071;49.036;9.344;2022-09-12T15:15:31;39.40;44.20
46364;DHT22;32071;49.036;9.344;2022-09-12T15:17:57;40.10;41.80
46364;DHT22;32071;49.036;9.344;2022-09-12T15:20:23;40.10;39.40
46364;DHT22;32071;49.036;9.344;2022-09-12T15:22:48;40.00;38.40
46364;DHT22;32071;49.036;9.344;2022-09-12T15:25:14;39.20;38.90
46364;DHT22;32071;49.036;9.344;2022-09-12T15:27:40;37.60;40.80
46364;DHT22;32071;49.036;9.344;2022-09-12T15:30:10;35.70;43.60
46364;DHT22;32071;49.036;9.344;2022-09-12T15:32:38;33.90;45.80
46364;DHT22;32071;49.036;9.344;2022-09-12T15:35:20;32.50;47.80
46364;DHT22;32071;49.036;9.344;2022-09-12T15:37:47;31.80;49.00
46364;DHT22;32071;49.036;9.344;2022-09-12T15:40:13;31.70;50.30
46364;DHT22;32071;49.036;9.344;2022-09-12T15:45:17;30.90;50.90
46364;DHT22;32071;49.036;9.344;2022-09-12T15:47:44;30.00;53.20
46364;DHT22;32071;49.036;9.344;2022-09-12T15:50:09;28.80;55.40
46364;DHT22;32071;49.036;9.344;2022-09-12T15:52:35;27.80;56.80
46364;DHT22;32071;49.036;9.344;2022-09-12T15:55:02;27.40;56.30
46364;DHT22;32071;49.036;9.344;2022-09-12T15:57:28;27.30;58.80
46364;DHT22;32071;49.036;9.344;2022-09-12T15:59:53;27.40;59.20
46364;DHT22;32071;49.036;9.344;2022-09-12T16:02:19;28.10;58.80
46364;DHT22;32071;49.036;9.344;2022-09-12T16:04:45;29.00;57.30
46364;DHT22;32071;49.036;9.344;2022-09-12T16:07:12;30.70;54.50
46364;DHT22;32071;49.036;9.344;2022-09-12T16:09:38;32.60;51.00
46364;DHT22;32071;49.036;9.344;2022-09-12T16:12:03;33.90;49.80
46364;DHT22;32071;49.036;9.344;2022-09-12T16:14:29;35.10;48.00
46364;DHT22;32071;49.036;9.344;2022-09-12T16:16:55;36.40;46.50
46364;DHT22;32071;49.036;9.344;2022-09-12T16:19:21;36.10;45.90
46364;DHT22;32071;49.036;9.344;2022-09-12T16:21:48;35.40;46.50
46364;DHT22;32071;49.036;9.344;2022-09-12T16:24:13;34.70;47.40
46364;DHT22;32071;49.036;9.344;2022-09-12T16:26:39;34.30;48.70
46364;DHT22;32071;49.036;9.344;2022-09-12T16:29:04;34.80;47.40
46364;DHT22;32071;49.036;9.344;2022-09-12T16:31:30;35.60;47.80
46364;DHT22;32071;49.036;9.344;2022-09-12T16:33:56;35.40;47.10
46364;DHT22;32071;49.036;9.344;2022-09-12T16:36:22;34.60;48.10
46364;DHT22;32071;49.036;9.344;2022-09-12T16:38:50;33.30;50.00
46364;DHT22;32071;49.036;9.344;2022-09-12T16:41:17;32.70;51.30
46364;DHT22;32071;49.036;9.344;2022-09-12T16:43:43;32.10;53.70
46364;DHT22;32071;49.036;9.344;2022-09-12T16:46:16;31.90;53.10
46364;DHT22;32071;49.036;9.344;2022-09-12T16:48:48;31.10;56.00
46364;DHT22;32071;49.036;9.344;2022-09-12T16:51:15;29.60;57.80
46364;DHT22;32071;49.036;9.344;2022-09-12T16:53:41;28.10;60.40
46364;DHT22;32071;49.036;9.344;2022-09-12T16:56:08;27.10;63.40
46364;DHT22;32071;49.036;9.344;2022-09-12T16:58:35;26.10;66.00
46364;DHT22;32071;49.036;9.344;2022-09-12T17:01:06;25.30;70.00
46364;DHT22;32071;49.036;9.344;2022-09-12T17:03:33;24.60;71.20
46364;DHT22;32071;49.036;9.344;2022-09-12T17:06:05;24.00;73.00
46364;DHT22;32071;49.036;9.344;2022-09-12T17:08:33;23.50;76.10
46364;DHT22;32071;49.036;9.344;2022-09-12T17:11:04;23.10;76.90
46364;DHT22;32071;49.036;9.344;2022-09-12T17:13:30;22.80;78.60
46364;DHT22;32071;49.036;9.344;2022-09-12T17:15:56;22.40;80.00
46364;DHT22;32071;49.036;9.344;2022-09-12T17:18:21;22.20;81.70
46364;DHT22;32071;49.036;9.344;2022-09-12T17:20:47;22.00;82.70
46364;DHT22;32071;49.036;9.344;2022-09-12T17:23:13;21.80;84.10
46364;DHT22;32071;49.036;9.344;2022-09-12T17:25:38;21.50;86.00
46364;DHT22;32071;49.036;9.344;2022-09-12T17:28:04;21.30;86.30
46364;DHT22;32071;49.036;9.344;2022-09-12T17:30:34;21.10;87.90
46364;DHT22;32071;49.036;9.344;2022-09-12T17:32:59;20.90;89.50
46364;DHT22;32071;49.036;9.344;2022-09-12T17:35:25;20.70;89.90
46364;DHT22;32071;49.036;9.344;2022-09-12T17:37:51;20.60;90.50
46364;DHT22;32071;49.036;9.344;2022-09-12T17:40:17;20.50;91.10
46364;DHT22;32071;49.036;9.344;2022-09-12T17:42:42;20.20;91.70
46364;DHT22;32071;49.036;9.344;2022-09-12T17:45:08;20.10;92.00
46364;DHT22;32071;49.036;9.344;2022-09-12T17:47:39;19.90;92.40
46364;DHT22;32071;49.036;9.344;2022-09-12T17:50:05;19.70;92.80
46364;DHT22;32071;49.036;9.344;2022-09-12T17:52:31;19.50;93.50
46364;DHT22;32071;49.036;9.344;2022-09-12T17:54:57;19.30;93.80
46364;DHT22;32071;49.036;9.344;2022-09-12T17:57:23;19.20;93.90
46364;DHT22;32071;49.036;9.344;2022-09-12T17:59:48;19.10;94.80
46364;DHT22;32071;49.036;9.344;2022-09-12T18:02:14;19.00;95.00
46364;DHT22;32071;49.036;9.344;2022-09-12T18:04:41;18.80;95.50
46364;DHT22;32071;49.036;9.344;2022-09-12T18:07:10;18.70;95.30
46364;DHT22;32071;49.036;9.344;2022-09-12T18:09:37;18.60;95.90
46364;DHT22;32071;49.036;9.344;2022-09-12T18:12:03;18.40;96.00
46364;DHT22;32071;49.036;9.344;2022-09-12T18:14:28;18.20;96.50
46364;DHT22;32071;49.036;9.344;2022-09-12T18:16:55;18.10;96.90
46364;DHT22;32071;49.036;9.344;2022-09-12T18:19:22;18.10;97.40
46364;DHT22;32071;49.036;9.344;2022-09-12T18:21:48;17.90;97.80
46364;DHT22;32071;49.036;9.344;2022-09-12T18:24:14;17.90;98.10
46364;DHT22;32071;49.036;9.344;2022-09-12T18:26:40;17.80;98.30
46364;DHT22;32071;49.036;9.344;2022-09-12T18:29:08;17.70;98.60